createdAt,value
2019-05-28T00:00:23.868Z,99936.00
2019-05-28T00:02:54.618Z,99941.00
2019-05-28T00:05:25.268Z,99929.00
2019-05-28T00:07:55.625Z,99931.00
2019-05-28T00:10:29.680Z,99925.00
2019-05-28T00:13:00.276Z,99931.00
2019-05-28T00:15:30.999Z,99921.00
2019-05-28T00:18:01.836Z,99919.00
2019-05-28T00:20:32.760Z,99921.00
2019-05-28T00:23:03.209Z,99908.00
2019-05-28T00:25:34.771Z,99902.00
2019-05-28T00:28:05.281Z,99905.00
2019-05-28T00:30:36.398Z,99905.00
2019-05-28T00:33:06.979Z,99896.00
2019-05-28T00:35:38.037Z,99896.00
2019-05-28T00:38:08.835Z,99904.00
2019-05-28T00:40:39.848Z,99894.00
2019-05-28T00:43:10.868Z,99891.00
2019-05-28T00:45:41.702Z,99883.00
2019-05-28T00:48:12.681Z,99891.00
2019-05-28T00:50:43.224Z,99902.00
2019-05-28T00:53:13.647Z,99896.00
2019-05-28T00:55:45.994Z,99888.00
2019-05-28T00:58:17.650Z,99892.00
2019-05-28T01:00:49.663Z,99884.00
2019-05-28T01:03:20.430Z,99884.00
2019-05-28T01:05:50.922Z,99888.00
2019-05-28T01:08:21.675Z,99888.00
2019-05-28T01:10:52.300Z,99881.00
2019-05-28T01:13:23.150Z,99877.00
2019-05-28T01:15:54.117Z,99876.00
2019-05-28T01:18:25.196Z,99877.00
2019-05-28T01:20:56.907Z,99877.00
2019-05-28T01:23:27.411Z,99876.00
2019-05-28T01:25:58.155Z,99883.00
2019-05-28T01:28:29.062Z,99875.00
2019-05-28T01:31:01.247Z,99864.00
2019-05-28T01:33:32.128Z,99870.00
2019-05-28T01:36:02.609Z,99872.00
2019-05-28T01:38:35.629Z,99878.00
2019-05-28T01:41:06.483Z,99881.00
2019-05-28T01:43:37.084Z,99868.00
2019-05-28T01:46:07.729Z,99870.00
2019-05-28T01:48:38.341Z,99879.00
2019-05-28T01:51:09.340Z,99876.00
2019-05-28T01:53:42.367Z,99868.00
2019-05-28T01:56:13.018Z,99866.00
2019-05-28T01:58:43.867Z,99879.00
2019-05-28T02:01:14.432Z,99868.00
2019-05-28T02:03:45.091Z,99867.00
2019-05-28T02:06:15.589Z,99870.00
2019-05-28T02:08:46.439Z,99862.00
2019-05-28T02:11:16.924Z,99873.00
2019-05-28T02:13:47.616Z,99868.00
2019-05-28T02:16:18.250Z,99869.00
2019-05-28T02:18:50.346Z,99862.00
2019-05-28T02:21:21.002Z,99859.00
2019-05-28T02:23:51.525Z,99865.00
2019-05-28T02:26:22.156Z,99870.00
2019-05-28T02:28:54.354Z,99867.00
2019-05-28T02:31:28.380Z,99873.00
2019-05-28T02:33:58.874Z,99866.00
2019-05-28T02:36:29.549Z,99868.00
2019-05-28T02:38:59.820Z,99870.00
2019-05-28T02:41:30.278Z,99873.00
2019-05-28T02:44:00.644Z,99877.00
2019-05-28T02:46:31.688Z,99872.00
2019-05-28T02:49:02.293Z,99875.00
2019-05-28T02:51:32.907Z,99869.00
2019-05-28T02:54:04.038Z,99872.00
2019-05-28T02:56:36.216Z,99873.00
2019-05-28T02:59:06.383Z,99867.00
2019-05-28T03:01:44.452Z,99863.00
2019-05-28T03:04:10.878Z,99871.00
2019-05-28T03:06:44.484Z,99875.00
2019-05-28T03:09:15.059Z,99874.00
2019-05-28T03:11:45.435Z,99873.00
2019-05-28T03:14:15.685Z,99877.00
2019-05-28T03:16:49.061Z,99880.00
2019-05-28T03:19:21.130Z,99877.00
2019-05-28T03:21:51.802Z,99884.00
2019-05-28T03:24:23.657Z,99873.00
2019-05-28T03:26:55.265Z,99873.00
2019-05-28T03:29:25.542Z,99869.00
2019-05-28T03:32:07.561Z,99878.00
2019-05-28T03:34:28.457Z,99876.00
2019-05-28T03:37:00.728Z,99882.00
2019-05-28T03:39:32.923Z,99890.00
2019-05-28T03:42:03.467Z,99887.00
2019-05-28T03:44:34.314Z,99897.00
2019-05-28T03:47:04.850Z,99891.00
2019-05-28T03:49:36.112Z,99889.00
2019-05-28T03:52:06.919Z,99894.00
2019-05-28T03:54:37.357Z,99895.00
2019-05-28T03:57:08.198Z,99899.00
2019-05-28T03:59:39.160Z,99892.00
2019-05-28T04:02:22.682Z,99900.00
2019-05-28T04:04:43.737Z,99887.00
2019-05-28T04:07:14.761Z,99887.00
2019-05-28T04:09:46.740Z,99890.00
2019-05-28T04:12:17.517Z,99896.00
2019-05-28T04:14:48.793Z,99900.00
2019-05-28T04:17:21.395Z,99900.00
2019-05-28T04:19:52.909Z,99893.00
2019-05-28T04:22:23.991Z,99901.00
2019-05-28T04:24:55.150Z,99898.00
2019-05-28T04:27:28.159Z,99907.00
2019-05-28T04:29:58.973Z,99902.00
2019-05-28T04:32:39.919Z,99928.00
2019-05-28T04:35:05.600Z,99925.00
2019-05-28T04:37:38.659Z,99924.00
2019-05-28T04:40:09.701Z,99933.00
2019-05-28T04:42:41.709Z,99935.00
2019-05-28T04:45:13.522Z,99923.00
2019-05-28T04:47:47.992Z,99937.00
2019-05-28T04:50:18.939Z,99937.00
2019-05-28T04:52:51.883Z,99928.00
2019-05-28T04:55:22.978Z,99930.00
2019-05-28T04:57:55.000Z,99936.00
2019-05-28T05:00:26.175Z,99937.00
2019-05-28T05:03:00.505Z,99941.00
2019-05-28T05:05:31.160Z,99935.00
2019-05-28T05:08:02.817Z,99933.00
2019-05-28T05:10:33.881Z,99923.00
2019-05-28T05:13:04.988Z,99925.00
2019-05-28T05:15:38.091Z,99923.00
2019-05-28T05:18:08.773Z,99922.00
2019-05-28T05:20:40.449Z,99912.00
2019-05-28T05:23:11.650Z,99921.00
2019-05-28T05:25:42.953Z,99930.00
2019-05-28T05:28:14.338Z,99936.00
2019-05-28T05:30:45.180Z,99930.00
2019-05-28T05:33:20.202Z,99933.00
2019-05-28T05:35:48.805Z,99929.00
2019-05-28T05:38:19.561Z,99935.00
2019-05-28T05:40:50.419Z,99937.00
2019-05-28T05:43:21.305Z,99938.00
2019-05-28T05:45:51.966Z,99931.00
2019-05-28T05:48:24.250Z,99939.00
2019-05-28T05:50:55.074Z,99941.00
2019-05-28T05:53:26.743Z,99940.00
2019-05-28T05:55:58.101Z,99946.00
2019-05-28T05:58:29.253Z,99936.00
2019-05-28T06:01:00.512Z,99945.00
2019-05-28T06:03:40.154Z,99936.00
2019-05-28T06:06:03.898Z,99940.00
2019-05-28T06:08:37.590Z,99933.00
2019-05-28T06:11:08.618Z,99932.00
2019-05-28T06:13:42.182Z,99927.00
2019-05-28T06:16:13.177Z,99924.00
2019-05-28T06:18:43.990Z,99928.00
2019-05-28T06:21:18.728Z,99933.00
2019-05-28T06:23:48.868Z,99929.00
2019-05-28T06:26:20.006Z,99938.00
2019-05-28T06:28:51.129Z,99934.00
2019-05-28T06:31:22.662Z,99924.00
2019-05-28T06:33:57.218Z,99933.00
2019-05-28T06:36:26.677Z,99923.00
2019-05-28T06:38:57.815Z,99924.00
2019-05-28T06:41:28.886Z,99924.00
2019-05-28T06:44:00.016Z,99933.00
2019-05-28T06:46:31.621Z,99946.00
2019-05-28T06:49:02.509Z,99946.00
2019-05-28T06:51:33.463Z,99952.00
2019-05-28T06:54:04.657Z,99945.00
2019-05-28T06:56:35.219Z,99942.00
2019-05-28T06:59:06.558Z,99948.00
2019-05-28T07:01:37.585Z,99936.00
2019-05-28T07:04:13.905Z,99956.00
2019-05-28T07:06:41.229Z,99946.00
2019-05-28T07:09:11.973Z,99939.00
2019-05-28T07:11:42.831Z,99942.00
2019-05-28T07:14:13.827Z,99945.00
2019-05-28T07:16:53.208Z,99943.00
2019-05-28T07:19:24.665Z,99956.00
2019-05-28T07:21:49.983Z,99934.00
2019-05-28T07:24:20.954Z,99945.00
2019-05-28T07:26:51.688Z,99933.00
2019-05-28T07:29:22.972Z,99937.00
2019-05-28T07:31:53.807Z,99944.00
2019-05-28T07:34:30.890Z,99939.00
2019-05-28T07:36:57.470Z,99946.00
2019-05-28T07:39:28.261Z,99943.00
2019-05-28T07:41:59.228Z,99937.00
2019-05-28T07:44:30.111Z,99937.00
2019-05-28T07:47:00.776Z,99943.00
2019-05-28T07:49:31.516Z,99933.00
2019-05-28T07:52:02.374Z,99937.00
2019-05-28T07:54:33.100Z,99940.00
2019-05-28T07:57:06.651Z,99943.00
2019-05-28T07:59:37.593Z,99938.00
2019-05-28T08:02:08.300Z,99938.00
2019-05-28T08:04:47.259Z,99935.00
2019-05-28T08:07:11.395Z,99940.00
2019-05-28T08:09:42.151Z,99940.00
2019-05-28T08:12:13.667Z,99935.00
2019-05-28T08:14:44.823Z,99935.00
2019-05-28T08:17:15.567Z,99938.00
2019-05-28T08:19:49.390Z,99934.00
2019-05-28T08:22:21.026Z,99935.00
2019-05-28T08:24:54.885Z,99934.00
2019-05-28T08:27:24.463Z,99945.00
2019-05-28T08:29:55.182Z,99934.00
2019-05-28T08:32:29.113Z,99943.00
2019-05-28T08:35:05.522Z,99948.00
2019-05-28T08:37:32.494Z,99938.00
2019-05-28T08:40:05.115Z,99949.00
2019-05-28T08:42:36.200Z,99940.00
2019-05-28T08:45:07.929Z,99938.00
2019-05-28T08:47:39.614Z,99939.00
2019-05-28T08:50:11.340Z,99944.00
2019-05-28T08:52:41.986Z,99954.00
2019-05-28T08:55:14.619Z,99958.00
2019-05-28T08:57:47.247Z,99948.00
2019-05-28T09:00:36.622Z,99949.00
2019-05-28T09:03:07.575Z,99960.00
2019-05-28T09:05:38.415Z,99968.00
2019-05-28T09:08:09.121Z,99966.00
2019-05-28T09:10:39.851Z,99970.00
2019-05-28T09:13:10.579Z,99969.00
2019-05-28T09:15:41.453Z,99971.00
2019-05-28T09:18:12.447Z,99970.00
2019-05-28T09:20:43.210Z,99963.00
2019-05-28T09:23:13.988Z,99968.00
2019-05-28T09:25:44.875Z,99964.00
2019-05-28T09:28:29.081Z,99964.00
2019-05-28T09:30:48.770Z,99968.00
2019-05-28T09:33:19.563Z,99968.00
2019-05-28T09:36:06.437Z,99967.00
2019-05-28T09:38:23.817Z,99972.00
2019-05-28T09:40:55.151Z,99969.00
2019-05-28T09:43:26.507Z,99964.00
2019-05-28T09:45:57.423Z,99975.00
2019-05-28T09:48:28.095Z,99976.00
2019-05-28T09:50:59.023Z,99980.00
2019-05-28T09:53:29.769Z,99980.00
2019-05-28T09:56:00.631Z,99975.00
2019-05-28T09:58:31.345Z,99980.00
2019-05-28T10:01:02.310Z,99981.00
2019-05-28T10:03:33.584Z,99972.00
2019-05-28T10:06:16.116Z,99981.00
2019-05-28T10:08:37.154Z,99986.00
2019-05-28T10:11:07.876Z,99978.00
2019-05-28T10:13:41.510Z,99982.00
2019-05-28T10:16:11.440Z,99988.00
2019-05-28T10:18:42.344Z,99985.00
2019-05-28T10:21:18.257Z,99979.00
2019-05-28T10:23:45.125Z,99988.00
2019-05-28T10:26:16.636Z,99992.00
2019-05-28T10:28:50.424Z,99996.00
2019-05-28T10:31:20.048Z,100002.00
2019-05-28T10:33:51.643Z,99999.00
2019-05-28T10:36:34.998Z,100000.00
2019-05-28T10:38:55.013Z,100005.00
2019-05-28T10:41:25.735Z,99997.00
2019-05-28T10:43:56.736Z,99995.00
2019-05-28T10:46:28.133Z,100001.00
2019-05-28T10:48:58.927Z,99997.00
2019-05-28T10:51:29.721Z,99998.00
2019-05-28T10:54:06.026Z,99997.00
2019-05-28T10:56:36.835Z,99996.00
2019-05-28T10:59:07.513Z,100003.00
2019-05-28T11:01:40.043Z,100004.00
2019-05-28T11:04:10.827Z,100002.00
2019-05-28T11:06:51.339Z,100005.00
2019-05-28T11:09:14.339Z,100007.00
2019-05-28T11:11:45.051Z,100007.00
2019-05-28T11:14:16.033Z,100017.00
2019-05-28T11:16:52.352Z,100027.00
2019-05-28T11:19:23.161Z,100020.00
2019-05-28T11:21:54.500Z,100013.00
2019-05-28T11:24:25.236Z,100007.00
2019-05-28T11:26:56.025Z,100010.00
2019-05-28T11:29:27.064Z,100021.00
2019-05-28T11:31:58.307Z,100005.00
2019-05-28T11:34:28.967Z,100000.00
2019-05-28T11:37:08.892Z,100012.00
2019-05-28T11:39:32.345Z,100002.00
2019-05-28T11:42:03.612Z,100010.00
2019-05-28T11:44:34.245Z,100003.00
2019-05-28T11:47:05.146Z,99996.00
2019-05-28T11:49:35.989Z,100008.00
2019-05-28T11:52:06.933Z,100002.00
2019-05-28T11:54:37.585Z,99998.00
2019-05-28T11:57:09.463Z,100011.00
2019-05-28T11:59:40.192Z,100012.00
2019-05-28T12:02:11.470Z,100011.00
2019-05-28T12:04:42.389Z,100008.00
2019-05-28T12:07:25.363Z,100009.00
2019-05-28T12:09:45.541Z,100001.00
2019-05-28T12:12:16.540Z,100005.00
2019-05-28T12:14:47.805Z,99999.00
2019-05-28T12:17:18.841Z,99997.00
2019-05-28T12:19:49.551Z,100005.00
2019-05-28T12:22:20.784Z,100002.00
2019-05-28T12:24:52.059Z,100010.00
2019-05-28T12:27:23.649Z,100013.00
2019-05-28T12:29:55.014Z,100011.00
2019-05-28T12:32:26.231Z,100015.00
2019-05-28T12:34:57.555Z,100015.00
2019-05-28T12:37:46.391Z,100017.00
2019-05-28T12:40:01.953Z,100024.00
2019-05-28T12:42:35.814Z,100025.00
2019-05-28T12:45:09.723Z,100019.00
2019-05-28T12:47:40.738Z,100033.00
2019-05-28T12:50:20.029Z,100028.00
2019-05-28T12:52:47.777Z,100031.00
2019-05-28T12:55:20.738Z,100031.00
2019-05-28T12:57:51.504Z,100028.00
2019-05-28T13:00:24.449Z,100035.00
2019-05-28T13:02:55.549Z,100036.00
2019-05-28T13:05:28.471Z,100034.00
2019-05-28T13:08:09.373Z,100032.00
2019-05-28T13:10:34.527Z,100030.00
2019-05-28T13:13:06.593Z,100037.00
2019-05-28T13:15:42.200Z,100044.00
2019-05-28T13:18:10.755Z,100050.00
2019-05-28T13:20:41.309Z,100046.00
2019-05-28T13:23:12.667Z,100048.00
2019-05-28T13:25:44.078Z,100052.00
2019-05-28T13:28:15.019Z,100046.00
2019-05-28T13:30:46.433Z,100057.00
2019-05-28T13:33:17.490Z,100050.00
2019-05-28T13:35:49.089Z,100052.00
2019-05-28T13:38:27.093Z,100049.00
2019-05-28T13:40:52.568Z,100049.00
2019-05-28T13:43:23.901Z,100060.00
2019-05-28T13:45:54.916Z,100065.00
2019-05-28T13:48:26.238Z,100058.00
2019-05-28T13:50:57.057Z,100063.00
2019-05-28T13:53:27.755Z,100056.00
2019-05-28T13:55:59.382Z,100061.00
2019-05-28T13:58:30.637Z,100073.00
2019-05-28T14:01:02.452Z,100057.00
2019-05-28T14:03:33.978Z,100066.00
2019-05-28T14:06:06.826Z,100064.00
2019-05-28T14:08:46.621Z,100065.00
2019-05-28T14:11:10.246Z,100059.00
2019-05-28T14:13:41.592Z,100057.00
2019-05-28T14:16:13.131Z,100061.00
2019-05-28T14:18:44.171Z,100061.00
2019-05-28T14:21:15.417Z,100074.00
2019-05-28T14:23:48.505Z,100077.00
2019-05-28T14:26:19.639Z,100087.00
2019-05-28T14:28:53.691Z,100083.00
2019-05-28T14:31:23.333Z,100087.00
2019-05-28T14:33:58.210Z,100088.00
2019-05-28T14:36:30.203Z,100088.00
2019-05-28T14:39:03.890Z,100101.00
2019-05-28T14:41:34.879Z,100102.00
2019-05-28T14:44:06.135Z,100105.00
2019-05-28T14:46:37.401Z,100099.00
2019-05-28T14:49:08.328Z,100109.00
2019-05-28T14:51:39.853Z,100116.00
2019-05-28T14:54:11.487Z,100117.00
2019-05-28T14:56:42.537Z,100113.00
2019-05-28T14:59:13.328Z,100129.00
2019-05-28T15:01:44.219Z,100124.00
2019-05-28T15:04:16.567Z,100126.00
2019-05-28T15:06:48.496Z,100140.00
2019-05-28T15:09:21.524Z,100131.00
2019-05-28T15:11:54.517Z,100137.00
2019-05-28T15:14:25.396Z,100137.00
2019-05-28T15:16:56.502Z,100142.00
2019-05-28T15:19:27.273Z,100143.00
2019-05-28T15:21:58.074Z,100148.00
2019-05-28T15:24:29.020Z,100150.00
2019-05-28T15:26:59.980Z,100151.00
2019-05-28T15:29:30.818Z,100146.00
2019-05-28T15:32:06.683Z,100148.00
2019-05-28T15:34:37.783Z,100151.00
2019-05-28T15:37:08.647Z,100153.00
2019-05-28T15:39:40.777Z,100160.00
2019-05-28T15:42:19.885Z,100159.00
2019-05-28T15:44:44.166Z,100155.00
2019-05-28T15:47:15.080Z,100157.00
2019-05-28T15:49:46.106Z,100167.00
2019-05-28T15:52:17.455Z,100164.00
2019-05-28T15:54:48.698Z,100166.00
2019-05-28T15:57:19.426Z,100171.00
2019-05-28T15:59:51.464Z,100172.00
2019-05-28T16:02:22.375Z,100176.00
2019-05-28T16:04:54.436Z,100180.00
2019-05-28T16:07:25.438Z,100174.00
2019-05-28T16:09:57.090Z,100179.00
2019-05-28T16:12:27.800Z,100187.00
2019-05-28T16:14:59.047Z,100185.00
2019-05-28T16:17:30.074Z,100194.00
2019-05-28T16:20:01.077Z,100196.00
2019-05-28T16:22:34.222Z,100197.00
2019-05-28T16:25:06.407Z,100199.00
2019-05-28T16:27:37.653Z,100201.00
2019-05-28T16:30:10.929Z,100201.00
2019-05-28T16:32:47.642Z,100208.00
2019-05-28T16:35:20.808Z,100211.00
2019-05-28T16:37:51.986Z,100212.00
2019-05-28T16:40:23.467Z,100217.00
2019-05-28T16:42:54.501Z,100211.00
2019-05-28T16:45:29.756Z,100215.00
2019-05-28T16:48:02.396Z,100214.00
2019-05-28T16:50:33.546Z,100219.00
2019-05-28T16:53:04.745Z,100218.00
2019-05-28T16:55:35.541Z,100224.00
2019-05-28T16:58:06.710Z,100229.00
2019-05-28T17:00:37.732Z,100233.00
2019-05-28T17:03:10.244Z,100237.00
2019-05-28T17:05:41.652Z,100238.00
2019-05-28T17:08:13.637Z,100239.00
2019-05-28T17:10:45.283Z,100251.00
2019-05-28T17:13:16.401Z,100245.00
2019-05-28T17:15:47.705Z,100246.00
2019-05-28T17:18:18.910Z,100250.00
2019-05-28T17:20:51.208Z,100254.00
2019-05-28T17:23:22.342Z,100259.00
2019-05-28T17:25:53.213Z,100259.00
2019-05-28T17:28:24.554Z,100272.00
2019-05-28T17:30:55.402Z,100274.00
2019-05-28T17:33:27.087Z,100277.00
2019-05-28T17:36:01.620Z,100285.00
2019-05-28T17:38:32.989Z,100288.00
2019-05-28T17:41:14.398Z,100288.00
2019-05-28T17:43:46.556Z,100291.00
2019-05-28T17:46:17.804Z,100297.00
2019-05-28T17:48:50.104Z,100299.00
2019-05-28T17:51:22.212Z,100314.00
2019-05-28T17:53:53.300Z,100309.00
2019-05-28T17:56:27.300Z,100317.00
2019-05-28T17:58:59.975Z,100330.00
2019-05-28T18:01:31.176Z,100337.00
2019-05-28T18:04:02.194Z,100332.00
2019-05-28T18:06:33.073Z,100330.00
2019-05-28T18:09:06.283Z,100339.00
2019-05-28T18:11:37.499Z,100335.00
2019-05-28T18:14:11.729Z,100342.00
2019-05-28T18:16:42.654Z,100344.00
2019-05-28T18:19:14.257Z,100344.00
2019-05-28T18:21:46.802Z,100353.00
2019-05-28T18:24:20.956Z,100355.00
2019-05-28T18:26:52.512Z,100356.00
2019-05-28T18:29:23.751Z,100362.00
2019-05-28T18:31:54.558Z,100371.00
2019-05-28T18:34:29.126Z,100375.00
2019-05-28T18:37:02.125Z,100368.00
2019-05-28T18:39:33.958Z,100387.00
2019-05-28T18:42:08.704Z,100380.00
2019-05-28T18:44:39.552Z,100381.00
2019-05-28T18:47:11.654Z,100388.00
2019-05-28T18:49:42.350Z,100386.00
2019-05-28T18:52:13.252Z,100407.00
2019-05-28T18:54:44.360Z,100402.00
2019-05-28T18:57:15.235Z,100405.00
2019-05-28T18:59:45.965Z,100419.00
2019-05-28T19:02:17.434Z,100417.00
2019-05-28T19:04:49.312Z,100420.00
2019-05-28T19:07:20.635Z,100425.00
2019-05-28T19:09:51.982Z,100423.00
2019-05-28T19:12:22.844Z,100432.00
2019-05-28T19:14:53.933Z,100431.00
2019-05-28T19:17:24.428Z,100438.00
2019-05-28T19:19:54.978Z,100440.00
2019-05-28T19:22:25.266Z,100461.00
2019-05-28T19:24:57.422Z,100461.00
2019-05-28T19:27:28.115Z,100456.00
2019-05-28T19:29:58.519Z,100469.00
2019-05-28T19:32:29.012Z,100473.00
2019-05-28T19:35:00.694Z,100469.00
2019-05-28T19:37:36.601Z,100485.00
2019-05-28T19:40:07.487Z,100485.00
2019-05-28T19:42:37.793Z,100492.00
2019-05-28T19:45:09.132Z,100493.00
2019-05-28T19:47:39.449Z,100498.00
2019-05-28T19:50:12.766Z,100498.00
2019-05-28T19:52:45.318Z,100509.00
2019-05-28T19:55:15.617Z,100524.00
2019-05-28T19:57:47.765Z,100524.00
2019-05-28T20:00:18.333Z,100539.00
2019-05-28T20:02:48.628Z,100541.00
2019-05-28T20:05:18.993Z,100555.00
2019-05-28T20:07:49.399Z,100559.00
2019-05-28T20:10:21.029Z,100561.00
2019-05-28T20:12:51.405Z,100578.00
2019-05-28T20:15:24.055Z,100574.00
2019-05-28T20:17:56.947Z,100576.00
2019-05-28T20:20:27.495Z,100586.00
2019-05-28T20:22:58.138Z,100588.00
2019-05-28T20:25:33.859Z,100599.00
2019-05-28T20:28:04.449Z,100602.00
2019-05-28T20:30:34.991Z,100607.00
2019-05-28T20:33:07.274Z,100608.00
2019-05-28T20:35:38.553Z,100620.00
2019-05-28T20:38:12.456Z,100627.00
2019-05-28T20:40:46.883Z,100629.00
2019-05-28T20:43:17.432Z,100634.00
2019-05-28T20:46:06.591Z,100630.00
2019-05-28T20:48:36.427Z,100639.00
2019-05-28T20:51:20.026Z,100623.00
2019-05-28T20:53:43.141Z,100633.00
2019-05-28T20:56:20.602Z,100640.00
2019-05-28T20:58:50.031Z,100635.00
2019-05-28T21:01:23.111Z,100644.00
2019-05-28T21:04:12.056Z,100649.00
2019-05-28T21:06:42.860Z,100651.00
2019-05-28T21:09:13.606Z,100655.00
2019-05-28T21:11:48.246Z,100661.00
2019-05-28T21:14:18.950Z,100659.00
2019-05-28T21:16:49.419Z,100677.00
2019-05-28T21:19:19.759Z,100665.00
2019-05-28T21:21:51.420Z,100666.00
2019-05-28T21:24:22.222Z,100672.00
2019-05-28T21:26:52.547Z,100677.00
2019-05-28T21:29:22.999Z,100686.00
2019-05-28T21:31:56.586Z,100692.00
2019-05-28T21:34:27.355Z,100696.00
2019-05-28T21:36:59.131Z,100706.00
2019-05-28T21:39:29.802Z,100707.00
2019-05-28T21:42:01.758Z,100714.00
2019-05-28T21:44:35.594Z,100719.00
2019-05-28T21:47:07.767Z,100712.00
2019-05-28T21:49:38.713Z,100716.00
2019-05-28T21:52:12.250Z,100719.00
2019-05-28T21:54:42.670Z,100719.00
2019-05-28T21:57:16.125Z,100726.00
2019-05-28T21:59:46.534Z,100736.00
2019-05-28T22:02:17.172Z,100731.00
2019-05-28T22:04:47.560Z,100740.00
2019-05-28T22:07:17.929Z,100733.00
2019-05-28T22:09:48.348Z,100750.00
2019-05-28T22:12:18.857Z,100749.00
2019-05-28T22:14:49.196Z,100758.00
2019-05-28T22:17:19.686Z,100753.00
2019-05-28T22:19:50.069Z,100763.00
2019-05-28T22:22:20.538Z,100772.00
2019-05-28T22:24:50.982Z,100771.00
2019-05-28T22:27:21.453Z,100776.00
2019-05-28T22:29:51.876Z,100767.00
2019-05-28T22:32:22.412Z,100772.00
2019-05-28T22:34:52.798Z,100778.00
2019-05-28T22:37:23.166Z,100769.00
2019-05-28T22:39:57.272Z,100782.00
2019-05-28T22:42:27.729Z,100795.00
2019-05-28T22:44:58.751Z,100790.00
2019-05-28T22:47:29.179Z,100785.00
2019-05-28T22:50:18.303Z,100804.00
2019-05-28T22:52:31.627Z,100802.00
2019-05-28T22:55:03.957Z,100786.00
2019-05-28T22:57:34.508Z,100796.00
2019-05-28T23:00:06.640Z,100799.00
2019-05-28T23:02:37.119Z,100819.00
2019-05-28T23:05:07.681Z,100816.00
2019-05-28T23:07:40.648Z,100811.00
2019-05-28T23:10:11.160Z,100816.00
2019-05-28T23:12:41.595Z,100819.00
2019-05-28T23:15:13.189Z,100823.00
2019-05-28T23:17:43.843Z,100833.00
2019-05-28T23:20:16.158Z,100844.00
2019-05-28T23:22:48.407Z,100851.00
2019-05-28T23:25:18.884Z,100854.00
2019-05-28T23:27:49.303Z,100855.00
2019-05-28T23:30:24.855Z,100854.00
2019-05-28T23:32:52.521Z,100866.00
2019-05-28T23:35:23.025Z,100864.00
2019-05-28T23:37:53.355Z,100881.00
2019-05-28T23:40:23.896Z,100882.00
2019-05-28T23:42:54.284Z,100878.00
2019-05-28T23:45:24.778Z,100880.00
2019-05-28T23:47:55.829Z,100887.00
2019-05-28T23:50:26.659Z,100884.00
2019-05-28T23:52:57.059Z,100897.00
2019-05-28T23:55:27.554Z,100902.00
2019-05-28T23:57:57.954Z,100900.00
